Time;durP1;ratioP1;P1;durP2;ratioP2;P2;SDS_P1;SDS_P2;PMS_P1;PMS_P2;Temp;Humidity;BMP_temperature;BMP_pressure;BME280_temperature;BME280_humidity;BME280_pressure;Samples;Min_cycle;Max_cycle;Signal;HPM_P1;HPM_P2
2022/08/31 00:04:39;;;;;;;3.05;1.20;;;18.10;68.00;;;;;;5036113;28;20052;-75
2022/08/31 00:07:05;;;;;;;1.10;1.00;;;18.00;68.00;;;;;;5034195;28;20036;-74
2022/08/31 00:09:31;;;;;;;1.00;0.90;;;18.00;68.10;;;;;;5035325;28;20030;-74
2022/08/31 00:11:57;;;;;;;1.45;1.20;;;18.00;68.10;;;;;;5034150;28;20485;-74
2022/08/31 00:14:23;;;;;;;1.40;1.30;;;17.90;68.10;;;;;;5035313;28;20041;-74
2022/08/31 00:16:48;;;;;;;4.15;1.30;;;17.90;68.20;;;;;;5035315;28;20033;-74
2022/08/31 00:19:14;;;;;;;1.38;1.20;;;17.90;68.30;;;;;;5033943;28;20034;-74
2022/08/31 00:21:40;;;;;;;1.35;1.15;;;17.90;68.30;;;;;;5033911;28;20025;-74
2022/08/31 00:24:06;;;;;;;2.85;1.17;;;17.90;68.40;;;;;;5033818;28;20037;-74
2022/08/31 00:26:31;;;;;;;2.05;1.02;;;17.90;68.50;;;;;;5035044;28;20500;-73
2022/08/31 00:28:57;;;;;;;1.83;1.10;;;17.80;68.40;;;;;;5033650;28;20036;-75
2022/08/31 00:31:23;;;;;;;1.83;1.20;;;17.80;68.40;;;;;;5033756;28;20029;-74
2022/08/31 00:33:51;;;;;;;2.05;1.00;;;17.90;68.60;;;;;;5033508;28;20080;-74
2022/08/31 00:36:18;;;;;;;1.55;1.17;;;17.80;68.50;;;;;;5035032;28;20105;-74
2022/08/31 00:38:44;;;;;;;2.78;1.30;;;17.80;68.60;;;;;;5033624;28;20064;-74
2022/08/31 00:41:10;;;;;;;2.13;1.13;;;17.80;68.60;;;;;;5034819;28;20030;-73
2022/08/31 00:43:48;;;;;;;1.20;1.10;;;17.80;68.70;;;;;;5033917;28;20048;-74
2022/08/31 00:46:21;;;;;;;1.48;1.05;;;17.70;68.60;;;;;;5034424;28;20140;-75
2022/08/31 00:48:58;;;;;;;1.60;1.20;;;17.70;68.90;;;;;;5034818;28;20511;-74
2022/08/31 00:51:26;;;;;;;1.90;1.20;;;17.70;69.20;;;;;;5033421;28;20037;-73
2022/08/31 00:53:52;;;;;;;1.92;1.20;;;17.60;69.00;;;;;;5034466;28;20041;-74
2022/08/31 00:56:18;;;;;;;1.52;1.08;;;17.60;69.00;;;;;;5034562;28;20040;-73
2022/08/31 00:58:45;;;;;;;1.50;1.20;;;17.60;69.10;;;;;;5033158;28;20033;-73
2022/08/31 01:01:12;;;;;;;1.50;1.20;;;17.50;69.20;;;;;;5034932;28;20029;-77
2022/08/31 01:03:38;;;;;;;1.85;1.25;;;17.50;69.10;;;;;;5033462;28;20025;-78
2022/08/31 01:06:03;;;;;;;1.25;1.15;;;17.50;69.20;;;;;;5033321;28;20136;-78
2022/08/31 01:08:30;;;;;;;1.98;1.02;;;17.50;69.20;;;;;;5034621;28;20025;-77
2022/08/31 01:10:57;;;;;;;1.45;1.10;;;17.40;69.20;;;;;;5034567;28;20033;-77
2022/08/31 01:13:23;;;;;;;1.30;1.20;;;17.40;69.20;;;;;;5034552;28;20072;-78
2022/08/31 01:15:53;;;;;;;1.20;1.10;;;17.40;69.20;;;;;;5034094;28;20033;-78
2022/08/31 01:18:20;;;;;;;1.92;1.17;;;17.50;69.30;;;;;;5032785;28;20025;-78
2022/08/31 01:24:11;;;;;;;3.50;1.67;;;17.40;69.20;;;;;;5035068;28;20083;-78
2022/08/31 01:26:37;;;;;;;1.50;1.20;;;17.40;69.20;;;;;;5034176;28;20033;-78
2022/08/31 01:29:05;;;;;;;1.40;1.10;;;17.40;69.40;;;;;;5032951;28;20021;-78
2022/08/31 01:31:42;;;;;;;2.00;1.38;;;17.30;70.00;;;;;;5029317;28;20052;-79
2022/08/31 01:34:09;;;;;;;2.33;1.20;;;17.30;69.40;;;;;;5032730;28;20452;-78
2022/08/31 01:36:37;;;;;;;1.20;1.00;;;17.30;69.40;;;;;;5032586;28;20508;-79
2022/08/31 01:39:05;;;;;;;0.98;0.98;;;17.20;69.40;;;;;;5033886;28;20029;-78
2022/08/31 01:41:31;;;;;;;2.28;0.98;;;17.30;69.40;;;;;;5032958;28;20029;-78
2022/08/31 01:43:57;;;;;;;1.10;1.00;;;17.30;69.40;;;;;;5032893;28;20389;-78
2022/08/31 01:46:23;;;;;;;2.13;1.25;;;17.20;69.40;;;;;;5032640;28;20052;-78
2022/08/31 01:48:49;;;;;;;2.45;1.35;;;17.20;69.40;;;;;;5033670;28;20087;-78
2022/08/31 01:51:17;;;;;;;0.80;0.75;;;17.10;69.40;;;;;;5032525;28;20029;-78
2022/08/31 01:53:45;;;;;;;1.45;1.30;;;17.10;69.40;;;;;;5033835;28;20025;-78
2022/08/31 01:56:30;;;;;;;1.25;1.08;;;17.10;69.40;;;;;;5032124;28;20522;-78
2022/08/31 01:58:57;;;;;;;2.13;1.20;;;17.10;69.50;;;;;;5033508;28;20079;-78
2022/08/31 02:01:27;;;;;;;1.92;1.10;;;17.00;69.50;;;;;;5032126;28;20025;-78
2022/08/31 02:03:53;;;;;;;1.38;1.27;;;17.00;69.50;;;;;;5031788;28;20029;-78
2022/08/31 02:06:18;;;;;;;1.60;1.20;;;17.00;69.50;;;;;;5033380;28;20041;-78
2022/08/31 02:08:44;;;;;;;1.88;1.00;;;17.00;69.50;;;;;;5032086;28;20025;-78
2022/08/31 02:11:10;;;;;;;1.67;1.17;;;16.90;69.40;;;;;;5033105;28;20512;-78
2022/08/31 02:13:36;;;;;;;2.45;1.10;;;16.90;69.50;;;;;;5031760;28;20040;-78
2022/08/31 02:16:03;;;;;;;1.02;0.93;;;16.90;69.50;;;;;;5032100;28;20029;-78
2022/08/31 02:18:28;;;;;;;2.22;1.13;;;16.90;69.50;;;;;;5032207;28;20086;-78
2022/08/31 02:20:54;;;;;;;2.63;1.00;;;16.90;69.50;;;;;;5033310;28;20517;-78
2022/08/31 02:23:20;;;;;;;2.53;1.08;;;16.80;69.40;;;;;;5033186;28;20051;-78
2022/08/31 02:25:45;;;;;;;1.55;1.05;;;16.80;69.40;;;;;;5033192;28;20056;-78
2022/08/31 02:28:12;;;;;;;1.10;1.00;;;16.80;69.40;;;;;;5031945;28;20037;-78
2022/08/31 02:30:42;;;;;;;1.25;1.15;;;16.80;69.30;;;;;;5031962;28;20032;-78
2022/08/31 02:33:08;;;;;;;2.03;1.10;;;16.80;69.30;;;;;;5031624;28;20025;-77
2022/08/31 02:35:34;;;;;;;1.40;1.05;;;16.80;69.40;;;;;;5031768;28;20037;-78
2022/08/31 02:38:00;;;;;;;1.15;1.00;;;16.70;69.30;;;;;;5033013;28;20025;-77
2022/08/31 02:40:26;;;;;;;1.98;0.90;;;16.70;69.30;;;;;;5031869;28;20034;-78
2022/08/31 02:42:52;;;;;;;1.50;1.00;;;16.70;69.20;;;;;;5031697;28;20029;-78
2022/08/31 02:45:17;;;;;;;0.80;0.80;;;16.60;69.20;;;;;;5031516;28;20060;-78
2022/08/31 02:47:43;;;;;;;1.73;1.20;;;16.60;69.10;;;;;;5031352;28;20053;-78
2022/08/31 02:50:09;;;;;;;3.08;0.98;;;16.60;69.10;;;;;;5032080;28;20048;-78
2022/08/31 02:52:35;;;;;;;0.90;0.90;;;16.60;69.20;;;;;;5031360;28;20043;-78
2022/08/31 02:55:01;;;;;;;1.17;1.00;;;16.60;69.20;;;;;;5031593;28;20489;-78
2022/08/31 02:57:27;;;;;;;0.88;0.88;;;16.50;69.10;;;;;;5032661;28;20056;-78
2022/08/31 02:59:53;;;;;;;1.45;1.00;;;16.50;69.10;;;;;;5032115;28;20051;-78
2022/08/31 03:02:20;;;;;;;1.10;0.90;;;16.50;69.10;;;;;;5036602;28;20041;-78
2022/08/31 03:04:46;;;;;;;1.50;0.95;;;16.40;69.10;;;;;;5036604;28;20053;-78
2022/08/31 03:07:11;;;;;;;1.13;1.00;;;16.40;69.00;;;;;;5035332;28;20075;-78
2022/08/31 03:09:37;;;;;;;1.95;1.33;;;16.40;69.00;;;;;;5036623;28;20099;-77
2022/08/31 03:12:03;;;;;;;3.85;1.13;;;16.40;69.00;;;;;;5035240;28;20036;-78
2022/08/31 03:14:28;;;;;;;1.13;1.02;;;16.40;69.00;;;;;;5036495;28;20388;-78
2022/08/31 03:16:54;;;;;;;1.15;0.90;;;16.30;68.90;;;;;;5036603;28;20051;-78
2022/08/31 03:19:20;;;;;;;1.33;1.00;;;16.30;68.90;;;;;;5036514;28;20070;-77
2022/08/31 03:21:46;;;;;;;3.47;1.00;;;16.30;68.90;;;;;;5036310;28;20030;-78
2022/08/31 03:24:13;;;;;;;1.00;0.90;;;16.30;68.90;;;;;;5036169;28;20029;-78
2022/08/31 03:26:39;;;;;;;1.33;1.00;;;16.30;68.80;;;;;;5035108;28;20159;-78
2022/08/31 03:29:05;;;;;;;2.55;0.85;;;16.30;68.80;;;;;;5036562;28;20038;-78
2022/08/31 03:31:31;;;;;;;1.17;1.00;;;16.20;68.70;;;;;;5036315;28;20484;-77
2022/08/31 03:33:58;;;;;;;0.75;0.75;;;16.20;68.70;;;;;;5035080;28;20040;-78
2022/08/31 03:36:23;;;;;;;1.10;1.00;;;16.20;68.60;;;;;;5034811;28;20104;-78
2022/08/31 03:38:49;;;;;;;0.93;0.73;;;16.20;68.50;;;;;;5034805;28;20064;-77
2022/08/31 03:41:20;;;;;;;0.95;0.80;;;16.20;68.50;;;;;;5034807;28;20084;-77
2022/08/31 03:43:45;;;;;;;1.00;0.90;;;16.10;68.40;;;;;;5036299;28;20116;-77
2022/08/31 03:46:11;;;;;;;1.27;0.80;;;16.10;68.30;;;;;;5034663;28;20081;-78
2022/08/31 03:48:37;;;;;;;0.70;0.70;;;16.10;68.30;;;;;;5034927;28;20422;-78
2022/08/31 03:51:02;;;;;;;0.93;0.80;;;16.10;68.20;;;;;;5034732;28;20041;-77
2022/08/31 03:53:28;;;;;;;1.08;0.82;;;16.10;68.00;;;;;;5034611;28;20404;-78
2022/08/31 03:56:01;;;;;;;0.77;0.77;;;16.10;67.90;;;;;;5034847;28;20435;-77
2022/08/31 03:58:31;;;;;;;0.88;0.88;;;16.00;67.80;;;;;;5035930;28;20033;-77
2022/08/31 04:00:57;;;;;;;0.80;0.80;;;16.00;67.80;;;;;;5035719;28;20033;-77
2022/08/31 04:03:23;;;;;;;2.30;0.73;;;16.00;67.80;;;;;;5034225;28;20489;-78
2022/08/31 04:05:49;;;;;;;1.15;0.90;;;16.00;67.80;;;;;;5034132;28;20025;-78
2022/08/31 04:08:16;;;;;;;0.80;0.80;;;15.90;67.70;;;;;;5034227;28;20051;-78
2022/08/31 04:10:44;;;;;;;2.00;0.90;;;15.90;67.60;;;;;;5035157;28;20087;-78
2022/08/31 04:13:10;;;;;;;1.35;0.90;;;15.90;67.50;;;;;;5034303;28;20025;-77
2022/08/31 04:15:36;;;;;;;1.30;0.93;;;15.90;67.40;;;;;;5033963;28;20029;-78
2022/08/31 04:18:02;;;;;;;1.60;0.98;;;15.80;67.30;;;;;;5034074;28;20021;-78
2022/08/31 04:20:28;;;;;;;1.20;0.93;;;15.80;67.30;;;;;;5034026;28;20362;-78
2022/08/31 04:22:53;;;;;;;1.63;0.70;;;15.80;67.30;;;;;;5034134;28;20029;-78
2022/08/31 04:25:19;;;;;;;0.60;0.60;;;15.70;67.20;;;;;;5034003;28;20025;-78
2022/08/31 04:27:45;;;;;;;1.50;1.25;;;15.70;67.20;;;;;;5033961;28;20478;-77
2022/08/31 04:30:11;;;;;;;1.23;0.90;;;15.70;67.20;;;;;;5033631;28;20124;-77
2022/08/31 04:32:36;;;;;;;1.23;0.85;;;15.70;67.10;;;;;;5034888;28;20033;-77
2022/08/31 04:35:03;;;;;;;0.82;0.73;;;15.70;67.10;;;;;;5033587;28;20059;-77
2022/08/31 04:37:29;;;;;;;0.95;0.68;;;15.70;67.40;;;;;;5033818;28;20037;-77
2022/08/31 04:39:56;;;;;;;1.20;0.70;;;15.60;67.00;;;;;;5033613;28;20056;-77
2022/08/31 04:42:22;;;;;;;2.03;0.95;;;15.60;66.90;;;;;;5033797;28;20021;-77
2022/08/31 04:44:48;;;;;;;1.00;0.90;;;15.60;66.90;;;;;;5033392;28;20060;-78
2022/08/31 04:47:13;;;;;;;1.20;0.80;;;15.60;66.80;;;;;;5032838;28;20178;-77
2022/08/31 04:49:39;;;;;;;2.10;0.93;;;15.50;66.70;;;;;;5033339;28;20025;-77
2022/08/31 04:52:05;;;;;;;3.38;0.77;;;15.50;66.60;;;;;;5033630;28;20462;-77
2022/08/31 04:54:31;;;;;;;0.80;0.80;;;15.50;66.50;;;;;;5034595;28;20477;-77
2022/08/31 04:56:58;;;;;;;1.23;0.80;;;15.50;66.50;;;;;;5034907;28;20018;-77
2022/08/31 04:59:26;;;;;;;0.75;0.75;;;15.50;66.40;;;;;;5034664;28;20033;-77
2022/08/31 05:01:51;;;;;;;0.95;0.70;;;15.50;67.00;;;;;;5033205;28;20033;-77
2022/08/31 05:04:22;;;;;;;1.00;0.80;;;15.50;66.20;;;;;;5033507;28;20366;-77
2022/08/31 05:06:48;;;;;;;0.93;0.80;;;15.50;66.10;;;;;;5034441;28;20485;-78
2022/08/31 05:09:21;;;;;;;0.95;0.60;;;15.50;65.90;;;;;;5034353;28;20030;-78
2022/08/31 05:11:49;;;;;;;0.88;0.70;;;15.50;65.90;;;;;;5034429;28;20027;-78
2022/08/31 05:14:15;;;;;;;0.85;0.68;;;15.50;65.70;;;;;;5032808;28;20086;-78
2022/08/31 05:16:41;;;;;;;0.82;0.68;;;15.50;65.70;;;;;;5034090;28;20191;-77
2022/08/31 05:19:07;;;;;;;0.88;0.63;;;15.50;65.60;;;;;;5033345;28;20026;-78
2022/08/31 05:21:38;;;;;;;1.30;0.70;;;15.50;65.60;;;;;;5033127;28;20515;-79
2022/08/31 05:24:08;;;;;;;0.65;0.45;;;15.40;65.30;;;;;;5032288;28;20029;-77
2022/08/31 05:26:37;;;;;;;0.50;0.40;;;15.40;65.20;;;;;;5034914;28;20033;-78
2022/08/31 05:29:05;;;;;;;0.75;0.55;;;15.40;65.20;;;;;;5032864;28;20041;-79
2022/08/31 05:31:31;;;;;;;0.73;0.60;;;15.40;65.10;;;;;;5032663;28;20049;-78
2022/08/31 05:33:57;;;;;;;1.90;0.70;;;15.40;65.00;;;;;;5032603;28;20033;-78
2022/08/31 05:36:24;;;;;;;1.50;0.70;;;15.40;64.90;;;;;;5032721;28;20021;-78
2022/08/31 05:38:52;;;;;;;1.27;0.60;;;15.40;64.90;;;;;;5033656;28;20036;-78
2022/08/31 05:41:19;;;;;;;1.02;0.70;;;15.40;64.80;;;;;;5033902;28;20040;-78
2022/08/31 05:43:44;;;;;;;0.57;0.40;;;15.40;64.80;;;;;;5032363;28;20036;-78
2022/08/31 05:46:13;;;;;;;0.63;0.60;;;15.40;64.70;;;;;;5032258;28;20112;-78
2022/08/31 05:48:39;;;;;;;1.05;0.50;;;15.40;64.50;;;;;;5032526;28;20026;-78
2022/08/31 05:51:07;;;;;;;0.55;0.55;;;15.50;64.30;;;;;;5032339;28;20083;-78
2022/08/31 05:53:34;;;;;;;0.70;0.50;;;15.50;64.20;;;;;;5032496;28;20053;-77
2022/08/31 05:56:02;;;;;;;2.40;0.60;;;15.50;64.20;;;;;;5032626;28;20128;-79
2022/08/31 05:58:29;;;;;;;0.45;0.43;;;15.50;64.00;;;;;;5033834;28;20397;-78
2022/08/31 06:00:57;;;;;;;1.20;0.28;;;15.50;63.90;;;;;;5032544;28;20025;-78
2022/08/31 06:03:22;;;;;;;0.82;0.43;;;15.50;63.80;;;;;;5032248;28;20028;-77
2022/08/31 06:05:49;;;;;;;0.43;0.43;;;15.50;63.80;;;;;;5032369;28;20432;-78
2022/08/31 06:08:15;;;;;;;1.05;0.55;;;15.50;63.80;;;;;;5032672;28;20035;-77
2022/08/31 06:10:42;;;;;;;0.75;0.50;;;15.50;63.70;;;;;;5032506;28;20036;-78
2022/08/31 06:13:09;;;;;;;1.15;0.50;;;15.50;63.70;;;;;;5032156;28;20037;-78
2022/08/31 06:15:35;;;;;;;1.10;0.70;;;15.50;63.70;;;;;;5032299;28;20021;-77
2022/08/31 06:18:01;;;;;;;1.33;0.60;;;15.50;63.60;;;;;;5033543;28;20413;-78
2022/08/31 06:20:26;;;;;;;1.27;0.77;;;15.50;64.30;;;;;;5033374;28;20104;-77
2022/08/31 06:22:52;;;;;;;0.50;0.50;;;15.50;63.80;;;;;;5033691;28;20037;-78
2022/08/31 06:25:18;;;;;;;0.60;0.60;;;15.50;63.80;;;;;;5032280;28;20547;-77
2022/08/31 06:27:47;;;;;;;0.70;0.52;;;15.50;63.80;;;;;;5031905;28;20026;-78
2022/08/31 06:30:20;;;;;;;1.30;0.60;;;15.50;63.80;;;;;;5031897;28;20029;-77
2022/08/31 06:32:46;;;;;;;0.80;0.50;;;15.50;63.80;;;;;;5031984;28;20119;-77
2022/08/31 06:35:13;;;;;;;1.00;0.77;;;15.50;64.40;;;;;;5031635;28;20481;-77
2022/08/31 06:37:38;;;;;;;1.15;0.60;;;15.50;63.80;;;;;;5031666;28;20485;-77
2022/08/31 06:40:04;;;;;;;0.70;0.57;;;15.50;63.90;;;;;;5031976;28;20028;-77
2022/08/31 06:42:30;;;;;;;0.80;0.75;;;15.50;63.90;;;;;;5033195;28;20044;-77
2022/08/31 06:44:56;;;;;;;0.80;0.57;;;15.50;64.00;;;;;;5033167;28;20021;-77
2022/08/31 06:47:21;;;;;;;0.70;0.60;;;15.50;64.00;;;;;;5031721;28;20526;-77
2022/08/31 06:49:47;;;;;;;1.27;0.65;;;15.60;64.00;;;;;;5032969;28;20101;-77
2022/08/31 06:52:13;;;;;;;0.70;0.50;;;15.60;64.00;;;;;;5033471;28;20030;-76
2022/08/31 06:54:39;;;;;;;0.60;0.50;;;15.60;64.00;;;;;;5031418;28;20033;-77
2022/08/31 06:57:05;;;;;;;1.48;0.70;;;15.70;64.00;;;;;;5031848;28;20516;-77
2022/08/31 06:59:32;;;;;;;1.92;0.60;;;15.70;63.90;;;;;;5031544;28;20034;-77
2022/08/31 07:01:59;;;;;;;0.82;0.63;;;15.80;64.00;;;;;;5031454;28;20029;-77
2022/08/31 07:04:25;;;;;;;1.75;0.60;;;15.90;64.00;;;;;;5031849;28;20025;-77
2022/08/31 07:06:51;;;;;;;2.63;0.98;;;16.00;63.90;;;;;;5032005;28;20096;-77
2022/08/31 07:09:17;;;;;;;1.55;0.80;;;16.00;63.90;;;;;;5032886;28;20036;-77
2022/08/31 07:11:48;;;;;;;1.08;0.52;;;16.00;63.80;;;;;;5032907;28;20448;-77
2022/08/31 07:14:16;;;;;;;1.98;0.75;;;16.10;63.90;;;;;;5031415;28;20481;-77
2022/08/31 07:16:43;;;;;;;1.63;0.80;;;16.10;64.00;;;;;;5031714;28;20026;-78
2022/08/31 07:19:10;;;;;;;0.75;0.63;;;16.00;64.00;;;;;;5031700;28;20127;-77
2022/08/31 07:21:42;;;;;;;0.80;0.60;;;16.10;64.10;;;;;;5032147;28;20037;-77
2022/08/31 07:24:09;;;;;;;1.25;0.80;;;16.20;64.20;;;;;;5031554;28;20201;-77
2022/08/31 07:26:56;;;;;;;1.02;0.55;;;16.20;64.20;;;;;;5031345;28;20362;-77
2022/08/31 07:29:24;;;;;;;1.02;0.70;;;16.30;64.30;;;;;;5033050;28;20029;-77
2022/08/31 07:31:50;;;;;;;2.58;0.93;;;16.30;64.30;;;;;;5032690;28;20164;-77
2022/08/31 07:34:19;;;;;;;1.02;0.60;;;16.40;64.40;;;;;;5031525;28;20036;-77
2022/08/31 07:42:20;;;;;;;3.35;0.95;;;16.70;64.30;;;;;;5033001;28;20189;-77
2022/08/31 07:44:51;;;;;;;0.88;0.70;;;16.80;64.20;;;;;;5031463;28;20093;-77
2022/08/31 07:47:19;;;;;;;1.15;0.63;;;17.00;64.30;;;;;;5033699;28;20128;-77
2022/08/31 07:49:51;;;;;;;0.90;0.80;;;17.10;64.10;;;;;;5034907;28;20037;-78
2022/08/31 07:52:25;;;;;;;3.05;0.68;;;17.10;64.00;;;;;;5034764;28;20037;-77
2022/08/31 07:54:53;;;;;;;1.27;0.80;;;17.20;63.90;;;;;;5035995;28;20065;-77
2022/08/31 07:57:20;;;;;;;0.73;0.70;;;17.30;63.90;;;;;;5034196;28;20037;-76
2022/08/31 07:59:53;;;;;;;0.65;0.65;;;17.40;64.00;;;;;;5035796;28;20026;-77
2022/08/31 08:02:20;;;;;;;0.70;0.63;;;17.50;64.00;;;;;;5035276;28;20040;-79
2022/08/31 08:04:49;;;;;;;2.75;0.88;;;17.50;64.00;;;;;;5035466;28;20048;-79
2022/08/31 08:07:17;;;;;;;0.70;0.70;;;17.60;64.10;;;;;;5035029;28;20029;-78
2022/08/31 08:09:42;;;;;;;0.82;0.80;;;17.70;63.90;;;;;;5036379;28;20024;-78
2022/08/31 08:12:08;;;;;;;1.10;0.80;;;17.80;63.80;;;;;;5036403;28;20022;-78
2022/08/31 08:14:36;;;;;;;0.85;0.73;;;17.90;63.70;;;;;;5034916;28;20018;-78
2022/08/31 08:17:04;;;;;;;1.52;1.00;;;17.90;63.40;;;;;;5034589;28;20116;-78
2022/08/31 08:19:30;;;;;;;2.28;0.90;;;18.00;63.30;;;;;;5034472;28;20501;-78
2022/08/31 08:21:56;;;;;;;2.50;1.00;;;18.00;63.30;;;;;;5034614;28;20048;-79
2022/08/31 08:24:21;;;;;;;1.90;1.13;;;18.00;63.10;;;;;;5034699;28;20029;-78
2022/08/31 08:26:49;;;;;;;1.55;0.80;;;18.00;63.10;;;;;;5036324;28;20037;-79
2022/08/31 08:29:16;;;;;;;1.58;0.93;;;18.10;63.10;;;;;;5036023;28;20037;-80
2022/08/31 08:31:43;;;;;;;1.35;0.90;;;18.20;63.10;;;;;;5035897;28;20416;-79
2022/08/31 08:34:09;;;;;;;3.20;0.80;;;18.20;62.90;;;;;;5034257;28;20029;-80
2022/08/31 08:36:36;;;;;;;1.00;0.85;;;18.30;62.90;;;;;;5034424;28;20026;-81
2022/08/31 08:39:07;;;;;;;0.80;0.70;;;18.40;63.00;;;;;;5034214;28;20519;-79
2022/08/31 08:41:36;;;;;;;2.42;0.90;;;18.40;62.80;;;;;;5035487;28;20516;-76
2022/08/31 08:44:07;;;;;;;1.92;1.00;;;18.50;62.80;;;;;;5035481;28;20108;-81
2022/08/31 08:46:42;;;;;;;1.20;0.88;;;18.60;62.70;;;;;;5037704;28;20049;-80
2022/08/31 08:49:23;;;;;;;1.00;0.90;;;18.70;62.50;;;;;;5035229;28;20052;-79
2022/08/31 08:51:53;;;;;;;2.45;1.00;;;18.70;62.40;;;;;;5036631;28;20481;-80
2022/08/31 08:54:46;;;;;;;1.02;0.80;;;18.80;62.30;;;;;;5035329;28;20036;-79
2022/08/31 08:57:21;;;;;;;1.00;0.90;;;18.80;62.30;;;;;;5031901;28;20044;-78
2022/08/31 08:59:49;;;;;;;2.33;0.70;;;18.80;62.30;;;;;;5032955;28;20038;-79
2022/08/31 09:02:34;;;;;;;0.90;0.68;;;18.90;62.30;;;;;;5033056;28;20523;-77
2022/08/31 09:05:34;;;;;;;2.90;0.70;;;19.00;62.20;;;;;;5033496;28;20052;-80
2022/08/31 09:08:09;;;;;;;1.58;0.90;;;19.10;62.10;;;;;;5033260;28;20505;-78
2022/08/31 09:11:05;;;;;;;1.50;0.75;;;19.20;62.10;;;;;;5034112;28;20065;-78
2022/08/31 09:13:44;;;;;;;1.17;0.80;;;19.30;62.00;;;;;;5032707;28;20508;-79
2022/08/31 09:16:38;;;;;;;1.52;0.82;;;19.40;61.90;;;;;;5033891;28;20388;-79
2022/08/31 09:19:10;;;;;;;1.10;0.82;;;19.60;61.70;;;;;;5034092;28;20029;-77
2022/08/31 09:21:56;;;;;;;1.20;1.00;;;19.70;61.50;;;;;;5032667;28;20568;-79
2022/08/31 09:24:26;;;;;;;1.40;1.00;;;19.80;61.20;;;;;;5034186;28;20393;-80
2022/08/31 09:26:55;;;;;;;1.38;0.75;;;19.90;60.90;;;;;;5033057;28;20033;-79
2022/08/31 09:29:23;;;;;;;0.80;0.80;;;20.00;60.90;;;;;;5032979;28;20095;-80
2022/08/31 09:32:00;;;;;;;3.53;0.70;;;20.10;60.80;;;;;;5032936;28;20051;-78
2022/08/31 09:34:30;;;;;;;1.45;0.85;;;20.10;60.60;;;;;;5032533;28;20029;-77
2022/08/31 09:37:20;;;;;;;1.38;0.82;;;20.20;60.30;;;;;;5032207;28;20477;-77
2022/08/31 09:39:48;;;;;;;1.52;1.00;;;20.20;59.90;;;;;;5032463;28;20102;-80
2022/08/31 09:42:30;;;;;;;3.30;0.80;;;20.30;59.90;;;;;;5034292;28;20101;-80
2022/08/31 09:45:04;;;;;;;3.13;0.90;;;20.30;59.40;;;;;;5032858;28;20029;-78
2022/08/31 09:47:54;;;;;;;1.95;0.93;;;20.30;59.70;;;;;;5032362;28;20124;-78
2022/08/31 09:50:44;;;;;;;1.85;0.80;;;20.40;59.70;;;;;;5034036;28;20025;-78
2022/08/31 09:59:42;;;;;;;1.75;0.70;;;20.60;58.90;;;;;;5033553;28;20040;-79
2022/08/31 10:02:21;;;;;;;1.13;0.70;;;20.70;58.60;;;;;;5032040;28;20021;-78
2022/08/31 10:04:53;;;;;;;1.77;0.85;;;20.80;58.50;;;;;;5033684;28;20065;-77
2022/08/31 10:07:36;;;;;;;1.27;0.98;;;20.90;58.20;;;;;;5031938;28;20098;-77
2022/08/31 10:10:27;;;;;;;1.55;0.70;;;20.90;58.00;;;;;;5031355;28;20022;-77
2022/08/31 10:12:59;;;;;;;1.00;0.73;;;21.00;58.00;;;;;;5032658;28;20111;-78
2022/08/31 10:15:31;;;;;;;4.50;1.23;;;21.00;57.80;;;;;;5033157;28;20082;-78
2022/08/31 10:18:12;;;;;;;0.88;0.63;;;21.10;57.40;;;;;;5033185;28;20496;-76
2022/08/31 10:21:06;;;;;;;1.58;0.90;;;21.10;57.50;;;;;;5031200;28;20026;-76
2022/08/31 10:23:53;;;;;;;1.73;0.85;;;21.20;57.50;;;;;;5032899;28;20052;-77
2022/08/31 10:26:35;;;;;;;2.70;0.90;;;21.20;57.20;;;;;;5032532;28;20113;-77
2022/08/31 10:29:13;;;;;;;2.08;0.98;;;21.20;56.90;;;;;;5031372;28;20181;-76
2022/08/31 10:31:44;;;;;;;0.77;0.52;;;21.20;57.00;;;;;;5031168;28;20052;-76
2022/08/31 10:37:22;;;;;;;1.17;0.80;;;21.40;56.90;;;;;;5032698;28;20074;-77
2022/08/31 10:39:53;;;;;;;2.13;0.80;;;21.50;56.70;;;;;;5031170;28;20057;-77
2022/08/31 10:42:33;;;;;;;1.85;0.75;;;21.60;56.70;;;;;;5031639;28;20021;-75
2022/08/31 10:45:09;;;;;;;2.30;0.90;;;21.80;56.40;;;;;;5032750;28;20025;-74
2022/08/31 10:47:40;;;;;;;1.75;0.70;;;21.80;56.20;;;;;;5030880;28;20095;-76
2022/08/31 10:50:09;;;;;;;0.90;0.73;;;21.80;56.10;;;;;;5030910;28;20056;-76
2022/08/31 10:52:52;;;;;;;1.45;0.90;;;21.90;56.20;;;;;;5032163;28;20096;-74
2022/08/31 10:55:39;;;;;;;2.28;0.98;;;21.90;56.10;;;;;;5031034;28;20112;-74
2022/08/31 10:58:52;;;;;;;1.45;0.73;;;21.80;56.10;;;;;;5030780;28;20033;-73
2022/08/31 11:01:45;;;;;;;1.45;1.05;;;21.80;56.00;;;;;;4955149;28;20483;-74
2022/08/31 11:04:24;;;;;;;4.00;1.00;;;21.80;56.10;;;;;;4955392;28;20127;-75
2022/08/31 11:07:24;;;;;;;1.67;0.88;;;21.80;55.90;;;;;;5020866;28;20042;-75
2022/08/31 11:10:08;;;;;;;0.65;0.65;;;21.90;55.90;;;;;;5031035;28;20025;-76
2022/08/31 11:12:40;;;;;;;;;;;21.90;55.80;;;;;;5031717;28;20032;-75
2022/08/31 11:15:24;;;;;;;2.25;0.90;;;22.00;55.40;;;;;;5032368;28;19916;-75
2022/08/31 11:18:11;;;;;;;1.10;0.80;;;22.00;55.70;;;;;;5031004;28;20030;-76
2022/08/31 11:20:59;;;;;;;1.20;0.80;;;22.10;55.80;;;;;;5032423;28;20113;-75
2022/08/31 11:24:07;;;;;;;2.33;0.60;;;22.30;55.60;;;;;;5035955;28;20029;-75
2022/08/31 11:26:45;;;;;;;1.30;0.88;;;22.50;55.30;;;;;;5035899;28;20544;-77
2022/08/31 11:29:42;;;;;;;2.03;0.95;;;22.60;55.00;;;;;;5035816;28;20030;-76
2022/08/31 11:32:41;;;;;;;1.95;1.00;;;22.80;54.60;;;;;;5036214;28;20033;-77
2022/08/31 11:35:09;;;;;;;2.60;0.90;;;22.90;54.50;;;;;;5023400;28;20041;-76
2022/08/31 11:37:53;;;;;;;1.33;1.02;;;23.10;54.00;;;;;;5034478;28;20029;-74
2022/08/31 11:40:44;;;;;;;0.60;0.60;;;23.30;53.60;;;;;;5033975;28;20493;-75
2022/08/31 11:43:28;;;;;;;2.00;0.88;;;23.40;53.70;;;;;;5034217;28;20025;-76
2022/08/31 11:45:54;;;;;;;0.60;0.60;;;23.40;53.40;;;;;;5033815;28;20169;-76
2022/08/31 11:48:54;;;;;;;1.15;0.90;;;23.30;53.50;;;;;;5034004;28;20030;-76
2022/08/31 11:51:31;;;;;;;1.40;0.55;;;23.20;53.00;;;;;;5033886;28;20029;-78
2022/08/31 11:54:25;;;;;;;1.65;0.80;;;23.20;53.30;;;;;;5033854;28;20060;-76
2022/08/31 11:56:55;;;;;;;3.65;1.00;;;23.20;53.50;;;;;;4998440;28;20068;-76
2022/08/31 11:59:40;;;;;;;1.02;0.70;;;23.20;53.20;;;;;;5033854;28;20422;-76
2022/08/31 12:02:18;;;;;;;3.30;0.90;;;23.30;53.10;;;;;;5034010;28;20036;-76
2022/08/31 12:04:59;;;;;;;0.88;0.82;;;23.40;53.10;;;;;;5035060;28;20030;-76
2022/08/31 12:07:35;;;;;;;1.05;0.70;;;23.50;52.90;;;;;;5033855;28;20029;-76
2022/08/31 12:10:22;;;;;;;1.00;0.70;;;23.60;52.80;;;;;;5033691;28;20037;-77
2022/08/31 12:12:51;;;;;;;3.42;0.93;;;23.80;52.60;;;;;;5033599;28;20033;-76
2022/08/31 12:15:41;;;;;;;1.27;0.70;;;23.80;52.20;;;;;;5034942;28;20030;-76
2022/08/31 12:18:37;;;;;;;0.95;0.70;;;23.70;52.10;;;;;;5034785;28;20442;-77
2022/08/31 12:24:25;;;;;;;2.28;0.73;;;23.60;52.10;;;;;;5034715;28;20045;-76
2022/08/31 12:27:12;;;;;;;2.58;1.00;;;23.50;52.30;;;;;;5033210;28;20076;-76
2022/08/31 12:29:39;;;;;;;1.77;1.00;;;23.50;52.30;;;;;;5034399;28;20386;-75
2022/08/31 12:32:29;;;;;;;1.27;0.80;;;23.70;52.20;;;;;;5033180;28;20025;-76
2022/08/31 12:34:58;;;;;;;2.40;0.80;;;23.80;51.40;;;;;;5033026;28;20494;-76
2022/08/31 12:37:36;;;;;;;1.52;1.02;;;23.90;51.50;;;;;;5034322;28;20037;-76
2022/08/31 12:40:07;;;;;;;1.77;0.90;;;24.10;51.50;;;;;;5034419;28;20184;-76
2022/08/31 12:42:38;;;;;;;1.50;0.80;;;24.30;51.20;;;;;;5034059;28;20116;-77
2022/08/31 12:45:04;;;;;;;1.30;0.73;;;24.50;51.10;;;;;;5034645;28;20037;-76
2022/08/31 12:47:50;;;;;;;1.88;0.80;;;24.60;50.90;;;;;;5032751;28;20041;-76
2022/08/31 12:50:35;;;;;;;0.70;0.70;;;24.80;50.50;;;;;;5032781;28;20026;-76
2022/08/31 12:53:26;;;;;;;0.90;0.77;;;24.90;50.40;;;;;;5034228;28;20033;-76
2022/08/31 12:59:55;;;;;;;1.10;0.93;;;24.90;49.10;;;;;;5012111;28;20096;-77
2022/08/31 13:02:22;;;;;;;0.73;0.73;;;24.90;49.20;;;;;;4995156;28;20096;-76
2022/08/31 13:04:48;;;;;;;1.23;1.13;;;24.90;49.50;;;;;;5012206;28;20034;-77
2022/08/31 13:07:21;;;;;;;1.88;0.80;;;24.90;49.40;;;;;;5011922;28;20109;-76
2022/08/31 13:10:01;;;;;;;2.85;0.85;;;25.10;49.50;;;;;;5012008;28;20064;-77
2022/08/31 13:12:26;;;;;;;1.50;0.65;;;25.10;49.20;;;;;;4995459;28;20080;-77
2022/08/31 13:14:52;;;;;;;1.75;0.60;;;25.20;49.20;;;;;;4995234;28;20031;-77
2022/08/31 13:17:20;;;;;;;1.77;0.68;;;25.30;49.10;;;;;;4995508;28;20026;-76
2022/08/31 13:19:55;;;;;;;2.45;0.85;;;25.40;48.70;;;;;;4995336;28;20045;-77
2022/08/31 13:22:41;;;;;;;1.13;0.70;;;25.40;48.70;;;;;;4995324;28;20087;-76
2022/08/31 13:25:13;;;;;;;1.00;0.77;;;25.40;48.80;;;;;;5011845;28;20128;-76
2022/08/31 13:27:46;;;;;;;2.30;1.00;;;25.50;48.50;;;;;;5011670;28;20088;-76
2022/08/31 13:30:17;;;;;;;1.17;0.85;;;25.50;48.00;;;;;;5021183;28;20120;-76
2022/08/31 13:32:48;;;;;;;1.35;0.90;;;25.50;47.60;;;;;;5032144;28;20038;-76
2022/08/31 13:35:20;;;;;;;1.20;0.82;;;25.50;47.60;;;;;;5031952;28;20025;-77
2022/08/31 13:38:03;;;;;;;0.73;0.73;;;25.60;47.90;;;;;;5033388;28;20139;-76